Armstrong, Texas
Current Conditions -  °F | °C
As of 8:35 AM on Monday 26 Jan 2015 (Local Time) from KBKS Reporting Station
Clear Clear  
Wind Chill: 51°   Ceiling: Unl
Heat Index: 51°   Visibility: 10mi
Dew Point: 41°   Wind: 0mph
Humidity: 69%   Direction: NA
Pressure: 30.28"   Gusts: NA
Location:  26.92°N, 97.79°W
Report Text: KBKS 261435Z AUTO 00000KT 10SM CLR 11/05 A3028 RMK AO1 T01060052
Loading
Personal Weather Stations






























Interactive Weather Map New forecast layout! Learn more

10-Day Weather Forecast

Advertisements
Track Severe Weather on mobile